Main page
METAR-TAF:

METAR-TAF

Airports :

Heimdal, Norway

Oil platform

latitude: 59-34-12N, longitude: 2-13-48E, elevation: 10 m

Current weather observation

The report was made 33 minutes ago, at 17:20 UTC
Wind 10 kt from the North/Northeast
Temperature 10°C
Humidity 37%
Pressure 1014 hPa
Visibility 10 km or more

METAR: ENHM 281720Z AUTO 03010KT 9999NDV NCD 10/M04 Q1014 W08/S3

Time: 19:53 (17:53 UTC)

Forecast

The report was made 6 hours and 53 minutes ago, at 11:00 UTC
Forecast valid from 28 at 12 UTC to 28 at 17 UTC
Wind 12 kt from the North/Northeast
Visibility 10 km or more
Few clouds at a height of 2000 ft
Scattered clouds at a height of 5000 ft

TAF: ENHM 281100Z 2812/2817 03012KT 9999 FEW020 SCT050

Weather observations and forecasts of more than 4000 airports (METAR and TAF reports).

The available stations are represented by yellow and red dots on the map.

Hover mouse over dot to see the name of the station.

Then click to see weather observations and forecasts.

To change the map : click on the green buttons with a black cross to zoom in, on the green button with a dash to zoom out, or on the green arrows for adjacent maps.


METAR-TAF: